createdAt,value
2023-05-10T00:01:42.720Z,7.68
2023-05-10T00:04:11.084Z,8.70
2023-05-10T00:06:39.302Z,9.82
2023-05-10T00:09:07.554Z,9.57
2023-05-10T00:11:35.845Z,11.85
2023-05-10T00:14:04.058Z,12.43
2023-05-10T00:16:33.705Z,13.45
2023-05-10T00:19:01.898Z,14.38
2023-05-10T00:21:30.405Z,14.70
2023-05-10T00:23:58.603Z,16.50
2023-05-10T00:26:27.247Z,18.10
2023-05-10T00:28:57.877Z,15.45
2023-05-10T00:31:26.189Z,15.38
2023-05-10T00:33:55.766Z,15.95
2023-05-10T00:36:23.981Z,15.65
2023-05-10T00:38:52.467Z,16.05
2023-05-10T00:41:22.097Z,17.20
2023-05-10T00:43:50.527Z,16.25
2023-05-10T00:46:18.982Z,16.42
2023-05-10T00:48:47.510Z,15.75
2023-05-10T00:51:17.287Z,16.52
2023-05-10T00:53:47.715Z,16.05
2023-05-10T00:56:16.298Z,16.50
2023-05-10T00:58:44.932Z,17.88
2023-05-10T01:01:13.915Z,18.88
2023-05-10T01:03:42.639Z,16.50
2023-05-10T01:06:12.331Z,16.52
2023-05-10T01:08:42.476Z,17.48
2023-05-10T01:11:10.864Z,17.60
2023-05-10T01:13:43.253Z,17.85
2023-05-10T01:16:11.628Z,16.13
2023-05-10T01:18:42.767Z,16.70
2023-05-10T01:21:21.572Z,16.17
2023-05-10T01:24:32.001Z,15.20
2023-05-10T01:27:38.275Z,15.48
2023-05-10T01:30:54.701Z,15.80
2023-05-10T01:33:29.038Z,15.27
2023-05-10T01:36:05.579Z,13.88
2023-05-10T01:38:42.045Z,13.80
2023-05-10T01:41:17.230Z,15.02
2023-05-10T01:43:55.656Z,14.55
2023-05-10T01:46:29.820Z,13.88
2023-05-10T01:49:02.764Z,14.02
2023-05-10T01:51:38.718Z,10.45
2023-05-10T01:54:08.092Z,13.95
2023-05-10T01:56:39.872Z,13.63
2023-05-10T01:59:15.053Z,12.43
2023-05-10T02:01:45.102Z,14.48
2023-05-10T02:04:17.889Z,13.48
2023-05-10T02:06:50.440Z,12.15
2023-05-10T02:09:20.435Z,11.32
2023-05-10T02:11:51.233Z,12.50
2023-05-10T02:14:21.110Z,12.32
2023-05-10T02:16:52.354Z,11.15
2023-05-10T02:19:22.680Z,12.75
2023-05-10T02:21:53.026Z,12.50
2023-05-10T02:24:22.522Z,13.27
2023-05-10T02:26:53.483Z,11.85
2023-05-10T02:29:24.260Z,12.38
2023-05-10T02:31:54.896Z,11.70
2023-05-10T02:34:27.925Z,11.57
2023-05-10T02:36:57.967Z,12.95
2023-05-10T02:39:29.613Z,10.48
2023-05-10T02:41:59.814Z,11.05
2023-05-10T02:44:32.127Z,12.55
2023-05-10T02:47:00.963Z,11.60
2023-05-10T02:49:31.950Z,10.75
2023-05-10T02:52:03.993Z,10.82
2023-05-10T02:54:35.620Z,11.50
2023-05-10T02:57:08.266Z,10.75
2023-05-10T02:59:36.660Z,10.25
2023-05-10T03:02:05.953Z,10.60
2023-05-10T03:04:35.712Z,10.80
2023-05-10T03:07:04.447Z,10.98
2023-05-10T03:09:33.638Z,8.52
2023-05-10T03:12:07.652Z,9.75
2023-05-10T03:14:51.169Z,10.50
2023-05-10T03:17:25.940Z,11.00
2023-05-10T03:19:58.679Z,10.77
2023-05-10T03:22:32.852Z,9.88
2023-05-10T03:25:06.658Z,10.15
2023-05-10T03:27:38.777Z,9.68
2023-05-10T03:30:10.135Z,11.13
2023-05-10T03:32:38.823Z,9.50
2023-05-10T03:35:10.622Z,9.85
2023-05-10T03:37:39.635Z,9.63
2023-05-10T03:40:09.228Z,10.15
2023-05-10T03:42:39.506Z,9.82
2023-05-10T03:45:09.255Z,11.70
2023-05-10T03:47:37.438Z,10.32
2023-05-10T03:50:06.950Z,10.13
2023-05-10T03:52:36.887Z,9.68
2023-05-10T03:55:05.779Z,10.88
2023-05-10T03:57:34.044Z,10.38
2023-05-10T04:00:02.519Z,9.65
2023-05-10T04:02:43.269Z,9.45
2023-05-10T04:05:17.513Z,10.18
2023-05-10T04:07:48.124Z,10.70
2023-05-10T04:10:17.858Z,10.45
2023-05-10T04:12:46.436Z,8.77
2023-05-10T04:15:14.652Z,8.77
2023-05-10T04:17:42.944Z,9.13
2023-05-10T04:20:12.417Z,9.20
2023-05-10T04:22:40.697Z,9.43
2023-05-10T04:25:11.306Z,9.38
2023-05-10T04:27:39.565Z,9.27
2023-05-10T04:30:09.310Z,9.00
2023-05-10T04:32:37.482Z,9.40
2023-05-10T04:35:06.251Z,10.35
2023-05-10T04:37:34.432Z,8.52
2023-05-10T04:40:03.106Z,9.27
2023-05-10T04:42:32.614Z,10.63
2023-05-10T04:45:00.827Z,9.55
2023-05-10T04:47:29.048Z,8.93
2023-05-10T04:49:57.257Z,9.30
2023-05-10T04:52:25.415Z,9.60
2023-05-10T04:54:53.744Z,9.70
2023-05-10T04:57:22.365Z,9.75
2023-05-10T04:59:52.091Z,9.05
2023-05-10T05:02:20.311Z,11.05
2023-05-10T05:04:48.595Z,11.57
2023-05-10T05:07:16.811Z,10.93
2023-05-10T05:09:45.027Z,11.38
2023-05-10T05:12:15.315Z,11.75
2023-05-10T05:14:43.671Z,10.93
2023-05-10T05:17:13.222Z,11.18
2023-05-10T05:19:41.467Z,11.80
2023-05-10T05:22:09.803Z,11.13
2023-05-10T05:24:39.164Z,11.45
2023-05-10T05:27:08.006Z,10.57
2023-05-10T05:29:36.583Z,11.57
2023-05-10T05:32:04.948Z,13.02
2023-05-10T05:34:34.674Z,11.70
2023-05-10T05:37:02.877Z,11.15
2023-05-10T05:39:31.054Z,12.77
2023-05-10T05:41:59.737Z,12.68
2023-05-10T05:44:29.969Z,11.60
2023-05-10T05:46:58.167Z,11.35
2023-05-10T05:49:26.407Z,12.05
2023-05-10T05:51:56.034Z,12.10
2023-05-10T05:54:24.243Z,11.25
2023-05-10T05:56:52.440Z,11.95
2023-05-10T05:59:20.771Z,12.85
2023-05-10T06:01:48.923Z,11.50
2023-05-10T06:04:17.344Z,12.43
2023-05-10T06:06:45.520Z,13.35
2023-05-10T06:09:15.285Z,12.80
2023-05-10T06:11:44.001Z,12.15
2023-05-10T06:14:12.324Z,12.13
2023-05-10T06:16:40.627Z,12.30
2023-05-10T06:19:08.929Z,12.30
2023-05-10T06:21:37.163Z,12.80
2023-05-10T06:24:06.435Z,13.85
2023-05-10T06:26:36.008Z,13.20
2023-05-10T06:29:04.310Z,12.07
2023-05-10T06:31:32.569Z,11.48
2023-05-10T06:34:00.795Z,12.02
2023-05-10T06:36:29.072Z,11.40
2023-05-10T06:38:57.401Z,12.40
2023-05-10T06:41:25.560Z,12.43
2023-05-10T06:43:55.204Z,11.75
2023-05-10T06:46:23.435Z,12.35
2023-05-10T06:48:51.750Z,11.90
2023-05-10T06:51:20.245Z,12.40
2023-05-10T06:53:48.467Z,10.82
2023-05-10T06:56:16.678Z,11.13
2023-05-10T06:58:44.889Z,10.25
2023-05-10T07:01:14.593Z,11.38
2023-05-10T07:03:42.922Z,11.43
2023-05-10T07:06:21.596Z,11.60
2023-05-10T07:08:54.128Z,11.25
2023-05-10T07:11:22.253Z,10.40
2023-05-10T07:13:50.650Z,9.95
2023-05-10T07:16:20.639Z,9.68
2023-05-10T07:18:49.067Z,10.30
2023-05-10T07:21:17.338Z,10.18
2023-05-10T07:23:45.535Z,10.15
2023-05-10T07:26:13.758Z,8.93
2023-05-10T07:28:42.069Z,9.48
2023-05-10T07:31:10.369Z,8.30
2023-05-10T07:33:40.077Z,10.07
2023-05-10T07:36:08.666Z,11.07
2023-05-10T07:38:38.993Z,10.35
2023-05-10T07:41:09.099Z,11.13
2023-05-10T07:43:37.321Z,10.70
2023-05-10T07:46:06.296Z,13.35
2023-05-10T07:48:34.738Z,11.80
2023-05-10T07:51:04.558Z,11.25
2023-05-10T07:53:33.195Z,11.30
2023-05-10T07:56:01.432Z,11.13
2023-05-10T07:58:29.962Z,12.23
2023-05-10T08:00:58.377Z,14.50
2023-05-10T08:03:26.637Z,12.52
2023-05-10T08:05:54.868Z,11.65
2023-05-10T08:08:25.201Z,12.65
2023-05-10T08:10:53.419Z,12.82
2023-05-10T08:13:21.796Z,12.50
2023-05-10T08:15:50.058Z,11.63
2023-05-10T08:18:18.593Z,10.70
2023-05-10T08:20:47.025Z,12.43
2023-05-10T08:23:15.448Z,11.65
2023-05-10T08:25:45.112Z,12.80
2023-05-10T08:28:13.408Z,12.60
2023-05-10T08:30:41.599Z,12.57
2023-05-10T08:33:09.893Z,12.88
2023-05-10T08:35:38.286Z,10.63
2023-05-10T08:38:06.511Z,10.60
2023-05-10T08:40:36.968Z,12.57
2023-05-10T08:43:08.765Z,11.38
2023-05-10T08:45:40.343Z,12.32
2023-05-10T08:48:09.737Z,12.18
2023-05-10T08:50:38.902Z,11.45
2023-05-10T08:53:11.339Z,12.00
2023-05-10T08:55:41.121Z,11.65
2023-05-10T08:58:11.524Z,11.90
2023-05-10T09:00:39.981Z,12.30
2023-05-10T09:03:08.414Z,12.52
2023-05-10T09:05:38.550Z,10.60
2023-05-10T09:08:07.475Z,13.27
2023-05-10T09:10:35.980Z,11.43
2023-05-10T09:13:05.006Z,13.10
2023-05-10T09:15:34.593Z,13.75
2023-05-10T09:18:03.464Z,12.73
2023-05-10T09:20:32.160Z,10.75
2023-05-10T09:23:00.453Z,11.52
2023-05-10T09:25:29.686Z,12.57
2023-05-10T09:27:58.000Z,12.95
2023-05-10T09:30:28.348Z,12.27
2023-05-10T09:32:59.242Z,11.27
2023-05-10T09:35:31.322Z,13.35
2023-05-10T09:38:05.967Z,13.35
2023-05-10T09:40:34.328Z,14.10
2023-05-10T09:43:04.874Z,14.52
2023-05-10T09:45:37.035Z,12.35
2023-05-10T09:48:08.462Z,13.05
2023-05-10T09:50:36.768Z,13.82
2023-05-10T09:53:05.920Z,15.65
2023-05-10T09:55:42.335Z,11.15
2023-05-10T09:58:12.012Z,13.07
2023-05-10T10:00:41.697Z,12.45
2023-05-10T10:03:16.760Z,11.93
2023-05-10T10:05:45.807Z,11.75
2023-05-10T10:08:15.032Z,11.55
2023-05-10T10:10:46.308Z,12.05
2023-05-10T10:13:15.398Z,12.20
2023-05-10T10:15:45.227Z,12.65
2023-05-10T10:18:16.995Z,11.75
2023-05-10T10:20:45.330Z,10.75
2023-05-10T10:23:16.537Z,11.27
2023-05-10T10:25:49.350Z,10.00
2023-05-10T10:28:33.410Z,13.15
2023-05-10T10:31:12.513Z,11.93
2023-05-10T10:33:58.047Z,12.10
2023-05-10T10:36:28.185Z,12.43
2023-05-10T10:39:04.195Z,14.13
2023-05-10T10:41:34.880Z,11.38
2023-05-10T10:44:37.831Z,11.75
2023-05-10T10:47:10.014Z,10.68
2023-05-10T10:49:50.816Z,10.35
2023-05-10T10:52:29.357Z,12.98
2023-05-10T10:55:02.998Z,10.40
2023-05-10T10:57:46.227Z,10.20
2023-05-10T11:00:25.805Z,10.80
2023-05-10T11:02:55.056Z,11.07
2023-05-10T11:05:39.804Z,11.00
2023-05-10T11:08:18.282Z,9.65
2023-05-10T11:11:07.776Z,9.60
2023-05-10T11:13:40.678Z,9.38
2023-05-10T11:16:17.655Z,11.55
2023-05-10T11:19:09.014Z,10.65
2023-05-10T11:21:48.312Z,9.77
2023-05-10T11:24:18.252Z,8.52
2023-05-10T11:26:47.193Z,9.10
2023-05-10T11:29:16.006Z,9.20
2023-05-10T11:31:46.113Z,9.98
2023-05-10T11:34:24.663Z,9.23
2023-05-10T11:36:56.005Z,9.90
2023-05-10T11:39:28.155Z,9.48
2023-05-10T11:41:57.226Z,9.80
2023-05-10T11:44:25.986Z,9.10
2023-05-10T11:46:54.329Z,10.15
2023-05-10T11:49:25.621Z,9.70
2023-05-10T11:51:55.185Z,9.55
2023-05-10T11:54:23.308Z,9.15
2023-05-10T11:56:52.307Z,9.20
2023-05-10T11:59:20.526Z,9.38
2023-05-10T12:01:49.056Z,9.35
2023-05-10T12:04:17.878Z,9.82
2023-05-10T12:06:47.590Z,8.50
2023-05-10T12:09:19.169Z,10.45
2023-05-10T12:11:51.612Z,8.75
2023-05-10T12:14:22.013Z,10.40
2023-05-10T12:16:50.571Z,9.23
2023-05-10T12:19:21.513Z,10.23
2023-05-10T12:21:50.035Z,10.65
2023-05-10T12:24:20.278Z,11.70
2023-05-10T12:26:49.426Z,9.88
2023-05-10T12:29:18.976Z,8.35
2023-05-10T12:31:55.664Z,8.45
2023-05-10T12:34:28.120Z,11.57
2023-05-10T12:36:56.847Z,11.45
2023-05-10T12:39:26.608Z,12.10
2023-05-10T12:41:55.042Z,10.93
2023-05-10T12:44:23.237Z,9.23
2023-05-10T12:46:51.451Z,10.13
2023-05-10T12:49:20.611Z,10.32
2023-05-10T12:51:48.875Z,11.07
2023-05-10T12:54:17.045Z,12.07
2023-05-10T12:56:46.677Z,10.98
2023-05-10T12:59:14.887Z,8.40
2023-05-10T13:01:43.203Z,10.80
2023-05-10T13:04:11.645Z,9.90
2023-05-10T13:06:39.882Z,10.20
2023-05-10T13:09:08.342Z,9.05
2023-05-10T13:11:36.626Z,10.85
2023-05-10T13:14:06.393Z,10.23
2023-05-10T13:16:35.029Z,10.95
2023-05-10T13:19:04.039Z,11.57
2023-05-10T13:21:32.390Z,10.57
2023-05-10T13:24:01.141Z,9.32
2023-05-10T13:26:29.544Z,9.00
2023-05-10T13:28:57.741Z,10.77
2023-05-10T13:31:27.624Z,9.82
2023-05-10T13:33:55.866Z,10.85
2023-05-10T13:36:24.536Z,8.80
2023-05-10T13:38:52.717Z,9.50
2023-05-10T13:41:21.859Z,9.80
2023-05-10T13:43:50.515Z,11.32
2023-05-10T13:46:18.796Z,10.45
2023-05-10T13:48:48.441Z,8.73
2023-05-10T13:51:16.634Z,8.60
2023-05-10T13:53:44.844Z,10.25
2023-05-10T13:56:13.108Z,9.77
2023-05-10T13:58:41.353Z,9.48
2023-05-10T14:01:09.597Z,8.95
2023-05-10T14:03:38.187Z,8.85
2023-05-10T14:06:08.533Z,9.20
2023-05-10T14:08:36.777Z,9.93
2023-05-10T14:11:05.105Z,8.68
2023-05-10T14:13:33.240Z,10.52
2023-05-10T14:16:01.916Z,9.15
2023-05-10T14:18:30.436Z,9.55
2023-05-10T14:20:58.684Z,9.05
2023-05-10T14:23:29.715Z,9.30
2023-05-10T14:25:58.338Z,10.13
2023-05-10T14:28:26.722Z,10.70
2023-05-10T14:30:55.069Z,9.68
2023-05-10T14:33:23.328Z,9.13
2023-05-10T14:35:51.956Z,10.07
2023-05-10T14:38:20.127Z,10.50
2023-05-10T14:40:49.804Z,10.10
2023-05-10T14:43:17.910Z,10.15
2023-05-10T14:45:46.572Z,10.00
2023-05-10T14:48:17.091Z,9.30
2023-05-10T14:50:45.585Z,9.10
2023-05-10T14:53:13.737Z,9.95
2023-05-10T14:55:42.110Z,10.57
2023-05-10T14:58:11.833Z,11.07
2023-05-10T15:00:40.027Z,11.30
2023-05-10T15:03:09.096Z,10.70
2023-05-10T15:05:38.352Z,8.70
2023-05-10T15:08:06.834Z,10.15
2023-05-10T15:10:35.263Z,9.65
2023-05-10T15:13:03.662Z,9.70
2023-05-10T15:15:33.453Z,9.18
2023-05-10T15:18:01.787Z,10.30
2023-05-10T15:20:30.042Z,10.75
2023-05-10T15:22:58.233Z,10.70
2023-05-10T15:25:27.003Z,10.50
2023-05-10T15:27:55.160Z,10.10
2023-05-10T15:30:23.549Z,10.00
2023-05-10T15:32:53.176Z,10.15
2023-05-10T15:35:21.520Z,9.57
2023-05-10T15:37:50.597Z,10.20
2023-05-10T15:40:19.027Z,10.05
2023-05-10T15:42:47.156Z,10.55
2023-05-10T15:45:16.397Z,9.70
2023-05-10T15:47:45.254Z,9.30
2023-05-10T15:50:17.152Z,10.32
2023-05-10T15:52:45.390Z,9.10
2023-05-10T15:55:14.323Z,10.13
2023-05-10T15:57:43.677Z,9.65
2023-05-10T16:00:14.105Z,10.43
2023-05-10T16:02:42.958Z,9.93
2023-05-10T16:05:11.367Z,9.68
2023-05-10T16:07:41.996Z,8.98
2023-05-10T16:10:12.370Z,10.38
2023-05-10T16:12:40.805Z,10.52
2023-05-10T16:15:10.408Z,9.93
2023-05-10T16:17:38.783Z,9.95
2023-05-10T16:20:08.476Z,9.85
2023-05-10T16:22:36.995Z,10.55
2023-05-10T16:25:07.804Z,10.13
2023-05-10T16:27:36.519Z,10.70
2023-05-10T16:30:05.107Z,9.98
2023-05-10T16:32:33.711Z,10.13
2023-05-10T16:35:02.150Z,10.27
2023-05-10T16:37:30.327Z,10.45
2023-05-10T16:39:58.521Z,11.10
2023-05-10T16:42:29.008Z,9.75
2023-05-10T16:44:57.219Z,10.55
2023-05-10T16:47:26.905Z,10.95
2023-05-10T16:49:55.336Z,10.70
2023-05-10T16:52:23.886Z,11.55
2023-05-10T16:54:52.177Z,10.82
2023-05-10T16:57:20.403Z,11.18
2023-05-10T16:59:50.155Z,10.73
2023-05-10T17:02:18.328Z,10.85
2023-05-10T17:04:46.724Z,11.05
2023-05-10T17:07:15.179Z,11.10
2023-05-10T17:09:44.534Z,11.43
2023-05-10T17:12:12.793Z,10.50
2023-05-10T17:14:41.111Z,11.40
2023-05-10T17:17:11.302Z,10.75
2023-05-10T17:19:39.785Z,11.25
2023-05-10T17:22:08.046Z,10.43
2023-05-10T17:24:36.258Z,12.02
2023-05-10T17:27:04.602Z,11.82
2023-05-10T17:29:33.092Z,10.13
2023-05-10T17:32:02.109Z,11.00
2023-05-10T17:34:32.007Z,9.95
2023-05-10T17:37:00.293Z,11.27
2023-05-10T17:39:28.538Z,11.75
2023-05-10T17:41:56.753Z,10.63
2023-05-10T17:44:25.597Z,10.55
2023-05-10T17:46:53.912Z,9.45
2023-05-10T17:49:22.272Z,10.60
2023-05-10T17:51:51.844Z,10.52
2023-05-10T17:54:20.124Z,10.82
2023-05-10T17:56:48.891Z,10.80
2023-05-10T17:59:17.211Z,10.65
2023-05-10T18:01:45.415Z,10.63
2023-05-10T18:04:13.678Z,9.80
2023-05-10T18:06:41.868Z,9.65
2023-05-10T18:09:11.587Z,9.95
2023-05-10T18:11:39.889Z,10.93
2023-05-10T18:14:08.173Z,10.68
2023-05-10T18:16:36.400Z,9.90
2023-05-10T18:19:04.898Z,10.90
2023-05-10T18:21:33.124Z,9.18
2023-05-10T18:24:01.762Z,9.07
2023-05-10T18:26:31.604Z,11.25
2023-05-10T18:29:01.579Z,10.85
2023-05-10T18:31:30.089Z,10.40
2023-05-10T18:33:58.393Z,10.45
2023-05-10T18:36:27.556Z,10.10
2023-05-10T18:38:56.026Z,9.75
2023-05-10T18:41:26.776Z,10.70
2023-05-10T18:43:56.400Z,9.70
2023-05-10T18:46:24.620Z,10.00
2023-05-10T18:48:53.048Z,11.85
2023-05-10T18:51:22.327Z,10.68
2023-05-10T18:53:50.553Z,10.30
2023-05-10T18:56:18.860Z,10.32
2023-05-10T18:58:47.066Z,11.07
2023-05-10T19:01:17.030Z,10.48
2023-05-10T19:03:45.335Z,9.32
2023-05-10T19:06:13.714Z,11.32
2023-05-10T19:08:42.090Z,9.65
2023-05-10T19:11:10.515Z,10.45
2023-05-10T19:13:38.877Z,10.00
2023-05-10T19:16:07.812Z,10.60
2023-05-10T19:18:38.933Z,11.05
2023-05-10T19:21:10.454Z,11.93
2023-05-10T19:23:41.764Z,11.05
2023-05-10T19:26:10.933Z,10.40
2023-05-10T19:28:39.730Z,10.80
2023-05-10T19:31:08.813Z,12.13
2023-05-10T19:33:39.100Z,11.48
2023-05-10T19:36:09.200Z,10.68
2023-05-10T19:38:38.345Z,11.77
2023-05-10T19:41:06.639Z,11.80
2023-05-10T19:43:35.376Z,11.52
2023-05-10T19:46:04.363Z,12.52
2023-05-10T19:48:32.998Z,13.10
2023-05-10T19:51:04.069Z,13.45
2023-05-10T19:53:33.457Z,14.20
2023-05-10T19:56:06.407Z,13.13
2023-05-10T19:58:35.116Z,12.95
2023-05-10T20:01:03.961Z,14.35
2023-05-10T20:03:33.650Z,13.43
2023-05-10T20:06:04.347Z,13.93
2023-05-10T20:08:32.635Z,13.52
2023-05-10T20:11:02.706Z,14.00
2023-05-10T20:13:31.237Z,14.30
2023-05-10T20:16:00.741Z,15.52
2023-05-10T20:18:29.092Z,13.98
2023-05-10T20:20:59.932Z,14.48
2023-05-10T20:23:29.584Z,14.40
2023-05-10T20:25:58.106Z,14.18
2023-05-10T20:28:27.230Z,13.45
2023-05-10T20:30:56.831Z,14.98
2023-05-10T20:33:26.848Z,14.88
2023-05-10T20:35:55.043Z,14.48
2023-05-10T20:38:23.218Z,14.88
2023-05-10T20:40:52.761Z,15.73
2023-05-10T20:43:21.453Z,15.40
2023-05-10T20:45:49.916Z,15.43
2023-05-10T20:48:19.538Z,14.75
2023-05-10T20:50:47.783Z,14.50
2023-05-10T20:53:16.159Z,15.27
2023-05-10T20:55:44.258Z,14.85
2023-05-10T20:58:13.894Z,13.77
2023-05-10T21:00:42.136Z,14.30
2023-05-10T21:03:10.484Z,16.52
2023-05-10T21:05:38.722Z,15.35
2023-05-10T21:08:07.542Z,13.73
2023-05-10T21:10:35.767Z,15.70
2023-05-10T21:13:04.112Z,16.95
2023-05-10T21:15:33.738Z,16.05
2023-05-10T21:18:02.100Z,15.10
2023-05-10T21:20:30.680Z,14.02
2023-05-10T21:22:58.888Z,15.00
2023-05-10T21:25:27.368Z,14.80
2023-05-10T21:27:56.114Z,15.52
2023-05-10T21:30:24.572Z,15.60
2023-05-10T21:32:59.540Z,14.88
2023-05-10T21:35:28.212Z,14.50
2023-05-10T21:37:56.538Z,13.73
2023-05-10T21:40:24.907Z,14.55
2023-05-10T21:42:53.119Z,14.10
2023-05-10T21:45:21.386Z,14.38
2023-05-10T21:47:49.898Z,15.30
2023-05-10T21:50:20.012Z,15.32
2023-05-10T21:52:48.384Z,14.43
2023-05-10T21:55:17.090Z,15.00
2023-05-10T21:57:45.838Z,14.60
2023-05-10T22:00:16.336Z,14.52
2023-05-10T22:02:44.838Z,14.93
2023-05-10T22:05:13.128Z,14.05
2023-05-10T22:07:42.859Z,15.00
2023-05-10T22:10:11.559Z,14.05
2023-05-10T22:12:39.890Z,13.77
2023-05-10T22:15:10.668Z,15.02
2023-05-10T22:17:40.437Z,14.98
2023-05-10T22:20:10.188Z,14.88
2023-05-10T22:22:38.457Z,13.57
2023-05-10T22:25:09.073Z,13.90
2023-05-10T22:27:37.432Z,15.63
2023-05-10T22:30:06.546Z,14.48
2023-05-10T22:32:35.156Z,13.75
2023-05-10T22:35:03.542Z,13.95
2023-05-10T22:37:32.326Z,14.45
2023-05-10T22:40:00.509Z,13.40
2023-05-10T22:42:30.719Z,13.75
2023-05-10T22:44:59.415Z,13.13
2023-05-10T22:47:27.689Z,12.48
2023-05-10T22:49:58.271Z,13.90
2023-05-10T22:52:26.833Z,13.00
2023-05-10T22:54:55.089Z,12.73
2023-05-10T22:57:23.371Z,13.50
2023-05-10T22:59:53.637Z,13.07
2023-05-10T23:02:21.859Z,12.57
2023-05-10T23:04:50.089Z,13.73
2023-05-10T23:07:18.380Z,11.70
2023-05-10T23:09:47.063Z,12.82
2023-05-10T23:12:15.277Z,11.20
2023-05-10T23:14:45.640Z,12.48
2023-05-10T23:17:15.246Z,10.55
2023-05-10T23:19:43.625Z,10.25
2023-05-10T23:22:11.898Z,10.15
2023-05-10T23:24:40.618Z,11.68
2023-05-10T23:27:08.844Z,9.38
2023-05-10T23:29:37.049Z,10.07
2023-05-10T23:32:05.590Z,9.23
2023-05-10T23:34:35.328Z,9.07
2023-05-10T23:37:03.591Z,9.45
2023-05-10T23:39:31.965Z,10.60
2023-05-10T23:42:00.165Z,8.98
2023-05-10T23:44:28.430Z,9.93
2023-05-10T23:46:56.666Z,9.50
2023-05-10T23:49:24.862Z,9.50
2023-05-10T23:52:12.692Z,9.65
2023-05-10T23:54:40.935Z,9.95
2023-05-10T23:57:09.111Z,10.15
2023-05-10T23:59:37.343Z,10.20
